Lake Melville: Past 24 Hour Conditions

 

Natashquan Airport

09:00 AM EDT 18 April 2014
This table is a summary of hourly weather conditions for the past 24 hours.
Date / Time
(EDT)
Wind(knots) Conditions Visibility(km) Pressure(kPa) Air tempC) Relative humidity(%) Dew pointC) Wind Chill
18 April 2014
9:00 S 10 Sunny 16 103.8 -1 82 -3 -6
8:00 SSW 7 Sunny 16 103.9 -2 87 -4 -6
7:00 ESE 3 Sunny 16 103.9 -7 95 -8 -9
6:00 E 2 Sunny 16 103.9 -9 96 -10 -11
5:00 NE 5 Clear 16 103.9 -10 97 -10 -14
4:00 NNE 4 Clear 16 103.9 -10 96 -11 -15
3:00 SW 7 Clear 16 104.0 -4 87 -6 -9
2:00 SE 2 Clear 16 104.0 -9 95 -9 -11
1:00 WNW 3 Mainly Clear 16 104.0 -9 87 -10 -11
0:00 calm Clear 16 104.1 -7 87 -9 *
17 April 2014
23:00 WSW 2 Clear 16 104.1 -7 83 -10 -9
22:00 WSW 3 Clear 16 104.1 -5 78 -9 -8
21:00 NE 3 Clear 16 104.1 -5 75 -9 -7
20:00 W 11 gust 16 Clear 16 104.1 -3 67 -8 -9
19:00 W 9 gust 15 Sunny 16 104.1 -3 64 -9 -8
18:00 W 12 gust 19 Sunny 16 104.1 -2 63 -8 -8
17:00 W 11 gust 17 Sunny 16 104.1 -2 64 -8 -8
16:00 W 15 gust 21 Sunny 16 104.0 -2 61 -8 -9
15:00 W 16 gust 21 Sunny 16 104.0 -2 57 -9 -9
14:00 WSW 16 gust 21 Sunny 16 104.0 -2 55 -10 -9
13:00 WSW 18 Sunny 16 104.0 -3 51 -12 -11
12:00 W 18 gust 24 Sunny 16 104.0 -3 54 -12 -11
11:00 W 15 gust 23 Sunny 16 103.9 -4 60 -10 -11
10:00 W 19 gust 25 Sunny 16 103.9 -4 55 -12 -13
9:00 WNW 13 gust 22 Sunny 16 103.8 -5 51 -13 -12
 
Map of Atlantic - Newfoundland marine weather areas Southwestern Grand Banks - 44138 Banquereau - 44139 Tail of the Bank - 44140 Nickerson Bank - 44251 Northeast Burgeo Bank - 44255 Blanc-Sablon Airport Cap Whittle Chevery Natashquan Airport Heath Point Miscou Island Grand Étang Ingonish Beach North Mountain St.Paul Island J.A. Douglas McCurdy Sydney Airport Charlottetown Airport East Point North Cape Argentia Bonavista Burgeo Cape Race Corner Brook Daniel's Harbour Englee Ferolle Point La Scie Port aux Basques Rocky Harbour Sagona Island St. Anthony Airport St. John's Int'l Airport St. Lawrence Stephenville Airport Twillingate Winterland Wreckhouse Cartwright Airport Mary's Harbour Grates Cove Pool's Island Marticot Island Long Pond Îles de la Madeleine Airport
Legend: buoyBuoy land stationLand Station